Time;durP1;ratioP1;P1;durP2;ratioP2;P2;SDS_P1;SDS_P2;PMS_P1;PMS_P2;Temp;Humidity;BMP_temperature;BMP_pressure;BME280_temperature;BME280_humidity;BME280_pressure;Samples;Min_cycle;Max_cycle;Signal;HPM_P1;HPM_P2
2023/10/01 00:00:17;;;;;;;;;;;15.40;99.90;;;;;;5114613;28;20401;-43
2023/10/01 00:02:42;;;;;;;;;;;15.40;99.90;;;;;;5114451;28;19924;-43
2023/10/01 00:05:09;;;;;;;;;;;15.40;99.90;;;;;;5114796;28;19927;-42
2023/10/01 00:07:37;;;;;;;;;;;15.40;99.90;;;;;;5114563;28;19930;-42
2023/10/01 00:10:06;;;;;;;;;;;15.40;99.90;;;;;;5114973;28;19975;-43
2023/10/01 00:12:33;;;;;;;;;;;15.40;99.90;;;;;;5114433;28;20013;-43
2023/10/01 00:14:58;;;;;;;;;;;15.40;99.90;;;;;;5114332;28;20031;-43
2023/10/01 00:17:24;;;;;;;;;;;15.40;99.90;;;;;;5113514;28;20395;-42
2023/10/01 00:19:50;;;;;;;;;;;15.40;99.90;;;;;;5114549;28;19946;-43
2023/10/01 00:22:17;;;;;;;;;;;15.30;99.90;;;;;;5114491;28;19927;-43
2023/10/01 00:24:43;;;;;;;;;;;15.40;99.90;;;;;;5113540;28;19924;-43
2023/10/01 00:27:09;;;;;;;;;;;15.40;99.90;;;;;;5113351;28;20344;-43
2023/10/01 00:29:35;;;;;;;;;;;15.30;99.90;;;;;;5113546;28;19931;-43
2023/10/01 00:32:00;;;;;;;;;;;15.40;99.90;;;;;;5113253;28;20294;-42
2023/10/01 00:34:26;;;;;;;;;;;15.40;99.90;;;;;;5114047;28;19923;-42
2023/10/01 00:36:52;;;;;;;;;;;15.30;99.90;;;;;;5113532;28;20375;-43
2023/10/01 00:39:18;;;;;;;;;;;15.30;99.90;;;;;;5114358;28;19931;-42
2023/10/01 00:41:44;;;;;;;;;;;15.30;99.90;;;;;;5114258;28;19974;-43
2023/10/01 00:44:10;;;;;;;;;;;15.30;99.90;;;;;;5114276;28;20439;-43
2023/10/01 00:46:36;;;;;;;;;;;15.30;99.90;;;;;;5114130;28;19932;-43
2023/10/01 00:49:02;;;;;;;;;;;15.30;99.90;;;;;;5115889;28;19924;-42
2023/10/01 00:51:32;;;;;;;;;;;15.30;99.90;;;;;;5118448;28;19971;-43
2023/10/01 00:53:58;;;;;;;;;;;15.30;99.90;;;;;;5118115;27;19924;-42
2023/10/01 00:56:25;;;;;;;;;;;15.30;99.90;;;;;;5118262;28;20302;-43
2023/10/01 00:58:51;;;;;;;;;;;15.30;99.90;;;;;;5118150;28;19924;-42
2023/10/01 01:01:17;;;;;;;;;;;15.30;99.90;;;;;;5117958;28;19931;-42
2023/10/01 01:03:43;;;;;;;;;;;15.30;99.90;;;;;;5118055;28;19971;-43
2023/10/01 01:06:17;;;;;;;;;;;15.30;99.90;;;;;;5118352;28;20294;-43
2023/10/01 01:08:46;;;;;;;;;;;15.30;99.90;;;;;;5117957;28;20392;-42
2023/10/01 01:11:15;;;;;;;;;;;15.30;99.90;;;;;;5117852;28;19924;-42
2023/10/01 01:13:44;;;;;;;;;;;15.30;99.90;;;;;;5117569;28;19924;-42
2023/10/01 01:16:13;;;;;;;;;;;15.30;99.90;;;;;;5117843;28;19924;-42
2023/10/01 01:18:41;;;;;;;;;;;15.30;99.90;;;;;;5117777;28;19924;-42
2023/10/01 01:21:11;;;;;;;;;;;15.30;99.90;;;;;;5117882;28;19923;-42
2023/10/01 01:23:36;;;;;;;;;;;15.30;99.90;;;;;;5117552;28;19970;-42
2023/10/01 01:26:02;;;;;;;;;;;15.30;99.90;;;;;;5117404;28;20032;-42
2023/10/01 01:28:30;;;;;;;;;;;15.30;99.90;;;;;;5117309;28;20197;-42
2023/10/01 01:30:58;;;;;;;;;;;15.30;99.90;;;;;;5117546;28;20390;-42
2023/10/01 01:33:31;;;;;;;;;;;15.30;99.90;;;;;;5117418;28;19924;-42
2023/10/01 01:35:57;;;;;;;;;;;15.30;99.90;;;;;;5117446;28;19924;-42
2023/10/01 01:38:23;;;;;;;;;;;15.30;99.90;;;;;;5117178;28;19924;-42
2023/10/01 01:40:51;;;;;;;;;;;15.30;99.90;;;;;;5117167;28;19924;-42
2023/10/01 01:43:21;;;;;;;;;;;15.30;99.90;;;;;;5117225;28;19928;-42
2023/10/01 01:45:54;;;;;;;;;;;15.20;99.90;;;;;;5117404;28;19931;-43
2023/10/01 01:48:30;;;;;;;;;;;15.30;99.90;;;;;;5117284;28;19932;-43
2023/10/01 01:50:58;;;;;;;;;;;15.30;99.90;;;;;;5116820;28;19923;-43
2023/10/01 01:53:27;;;;;;;;;;;15.20;99.90;;;;;;5116665;28;20053;-42
2023/10/01 01:55:56;;;;;;;;;;;15.20;99.90;;;;;;5116985;28;19931;-42
2023/10/01 01:58:24;;;;;;;;;;;15.20;99.90;;;;;;5116869;28;20414;-42
2023/10/01 02:01:08;;;;;;;;;;;15.20;99.90;;;;;;5116016;27;19930;-42
2023/10/01 02:03:37;;;;;;;;;;;15.20;99.90;;;;;;5116975;28;19924;-42
2023/10/01 02:06:06;;;;;;;;;;;15.20;99.90;;;;;;5115588;28;19927;-43
2023/10/01 02:08:44;;;;;;;;;;;15.20;99.90;;;;;;5116709;28;19969;-42
2023/10/01 02:11:10;;;;;;;;;;;15.20;99.90;;;;;;5116673;27;19924;-42
2023/10/01 02:13:41;;;;;;;;;;;15.20;99.90;;;;;;5116552;28;19931;-43
2023/10/01 02:19:02;;;;;;;;;;;15.20;99.90;;;;;;5116607;28;20034;-42
2023/10/01 02:21:42;;;;;;;;;;;15.20;99.90;;;;;;5116758;28;19924;-42
2023/10/01 02:24:12;;;;;;;;;;;15.20;99.90;;;;;;5116601;27;20443;-42
2023/10/01 02:26:41;;;;;;;;;;;15.20;99.90;;;;;;5116265;28;19976;-43
2023/10/01 02:29:12;;;;;;;;;;;15.20;99.90;;;;;;5116210;28;19947;-42
2023/10/01 02:31:39;;;;;;;;;;;15.20;99.90;;;;;;5116406;28;19930;-42
2023/10/01 02:34:08;;;;;;;;;;;15.20;99.90;;;;;;5116379;28;19927;-42
2023/10/01 02:36:43;;;;;;;;;;;15.20;99.90;;;;;;5116151;28;19924;-43
2023/10/01 02:39:20;;;;;;;;;;;15.20;99.90;;;;;;5115979;28;20371;-42
2023/10/01 02:42:09;;;;;;;;;;;15.20;99.90;;;;;;5116293;28;19930;-42
2023/10/01 02:44:38;;;;;;;;;;;15.20;99.90;;;;;;5116018;28;19923;-43
2023/10/01 02:47:15;;;;;;;;;;;15.20;99.90;;;;;;5116144;28;19927;-42
2023/10/01 02:49:49;;;;;;;;;;;15.20;99.90;;;;;;5115957;28;20385;-43
2023/10/01 02:52:15;;;;;;;;;;;15.20;99.90;;;;;;5116032;28;19932;-42
2023/10/01 02:54:40;;;;;;;;;;;15.20;99.90;;;;;;5115748;28;20386;-42
2023/10/01 02:57:12;;;;;;;;;;;15.20;99.90;;;;;;5115855;28;19927;-42
2023/10/01 03:00:10;;;;;;;;;;;15.20;99.90;;;;;;5115748;28;19924;-42
2023/10/01 03:02:32;;;;;;;;;;;15.10;99.90;;;;;;5114593;28;20279;-42
2023/10/01 03:05:03;;;;;;;;;;;15.20;99.90;;;;;;5115093;28;20405;-42
2023/10/01 03:07:32;;;;;;;;;;;15.10;99.90;;;;;;5115629;28;19984;-42
2023/10/01 03:10:00;;;;;;;;;;;15.10;99.90;;;;;;5115693;28;20012;-42
2023/10/01 03:12:34;;;;;;;;;;;15.10;99.90;;;;;;5115454;28;20252;-42
2023/10/01 03:15:00;;;;;;;;;;;15.10;99.90;;;;;;5115238;28;19927;-42
2023/10/01 03:17:27;;;;;;;;;;;15.10;99.90;;;;;;5115457;28;19929;-43
2023/10/01 03:19:53;;;;;;;;;;;15.10;99.90;;;;;;5115454;27;19947;-43
2023/10/01 03:22:31;;;;;;;;;;;15.10;99.90;;;;;;5115333;28;19924;-42
2023/10/01 03:24:58;;;;;;;;;;;15.10;99.90;;;;;;5115350;28;20381;-42
2023/10/01 03:27:27;;;;;;;;;;;15.10;99.90;;;;;;5114200;28;19924;-42
2023/10/01 03:30:19;;;;;;;;;;;15.10;99.90;;;;;;5115257;28;20014;-42
2023/10/01 03:32:46;;;;;;;;;;;15.10;99.90;;;;;;5115130;28;19932;-42
2023/10/01 03:35:12;;;;;;;;;;;15.10;99.90;;;;;;5115083;28;19931;-42
2023/10/01 03:37:38;;;;;;;;;;;15.10;99.90;;;;;;5114855;28;20023;-42
2023/10/01 03:40:10;;;;;;;;;;;15.10;99.90;;;;;;5115040;28;19923;-43
2023/10/01 03:42:37;;;;;;;;;;;15.10;99.90;;;;;;5114113;28;20371;-42
2023/10/01 03:45:26;;;;;;;;;;;15.00;99.90;;;;;;5115127;28;19946;-42
2023/10/01 03:47:57;;;;;;;;;;;15.10;99.90;;;;;;5115023;28;20344;-42
2023/10/01 03:50:26;;;;;;;;;;;15.10;99.90;;;;;;5115499;28;19923;-43
2023/10/01 03:52:54;;;;;;;;;;;15.10;99.90;;;;;;5114885;28;19963;-43
2023/10/01 03:55:27;;;;;;;;;;;15.10;99.90;;;;;;5114788;28;19924;-43
2023/10/01 03:58:18;;;;;;;;;;;15.10;99.90;;;;;;5114509;28;19924;-44
2023/10/01 04:00:52;;;;;;;;;;;15.10;99.90;;;;;;5114501;28;19924;-43
2023/10/01 04:03:21;;;;;;;;;;;15.10;99.90;;;;;;5114452;28;20366;-42
2023/10/01 04:05:56;;;;;;;;;;;15.10;99.90;;;;;;5114628;28;19982;-42
2023/10/01 04:08:23;;;;;;;;;;;15.10;99.90;;;;;;5114769;28;19951;-42
2023/10/01 04:10:57;;;;;;;;;;;15.10;99.90;;;;;;5114405;28;19966;-43
2023/10/01 04:13:24;;;;;;;;;;;15.10;99.90;;;;;;5114754;28;20022;-43
2023/10/01 04:15:55;;;;;;;;;;;15.10;99.90;;;;;;5114810;28;20310;-42
2023/10/01 04:18:23;;;;;;;;;;;15.10;99.90;;;;;;5114718;28;19924;-43
2023/10/01 04:23:29;;;;;;;;;;;15.10;99.90;;;;;;5115486;28;19993;-43
2023/10/01 04:25:55;;;;;;;;;;;15.10;99.90;;;;;;5118800;27;19931;-43
2023/10/01 04:28:23;;;;;;;;;;;15.10;99.90;;;;;;5118724;28;19931;-42
2023/10/01 04:30:51;;;;;;;;;;;15.10;99.90;;;;;;5118717;28;19923;-43
2023/10/01 04:33:23;;;;;;;;;;;15.10;99.90;;;;;;5118665;28;19928;-43
2023/10/01 04:35:51;;;;;;;;;;;15.10;99.90;;;;;;5118423;28;19931;-43
2023/10/01 04:38:21;;;;;;;;;;;15.10;99.90;;;;;;5118303;28;19924;-43
2023/10/01 04:40:48;;;;;;;;;;;15.10;99.90;;;;;;5118765;28;20298;-42
2023/10/01 04:43:19;;;;;;;;;;;15.10;99.90;;;;;;5118464;28;19924;-42
2023/10/01 04:45:45;;;;;;;;;;;15.10;99.90;;;;;;5117712;28;19931;-42
2023/10/01 04:48:22;;;;;;;;;;;15.10;99.90;;;;;;5118233;28;19928;-42
2023/10/01 04:50:49;;;;;;;;;;;15.10;99.90;;;;;;5118126;28;19969;-42
2023/10/01 04:53:18;;;;;;;;;;;15.10;99.90;;;;;;5118407;28;19934;-42
2023/10/01 04:55:44;;;;;;;;;;;15.10;99.90;;;;;;5118389;28;19977;-42
2023/10/01 04:58:12;;;;;;;;;;;15.10;99.90;;;;;;5118133;28;19924;-42
2023/10/01 05:00:39;;;;;;;;;;;15.10;99.90;;;;;;5118119;28;20371;-43
2023/10/01 05:03:06;;;;;;;;;;;15.10;99.90;;;;;;5117091;28;19930;-42
2023/10/01 05:05:37;;;;;;;;;;;15.10;99.90;;;;;;5118503;28;19928;-42
2023/10/01 05:08:06;;;;;;;;;;;15.10;99.90;;;;;;5117923;28;19924;-41
2023/10/01 05:10:50;;;;;;;;;;;15.10;99.90;;;;;;5117885;28;20013;-41
2023/10/01 05:13:19;;;;;;;;;;;15.10;99.90;;;;;;5117858;28;19928;-41
2023/10/01 05:15:49;;;;;;;;;;;15.10;99.90;;;;;;5117562;28;20367;-41
2023/10/01 05:18:17;;;;;;;;;;;15.10;99.90;;;;;;5117738;28;19982;-40
2023/10/01 05:20:45;;;;;;;;;;;15.10;99.90;;;;;;5117745;28;20272;-40
2023/10/01 05:23:12;;;;;;;;;;;15.10;99.90;;;;;;5117796;28;20019;-40
2023/10/01 05:25:45;;;;;;;;;;;15.10;99.90;;;;;;5117767;28;19969;-40
2023/10/01 05:28:32;;;;;;;;;;;15.00;99.90;;;;;;5117612;28;20015;-41
2023/10/01 05:31:12;;;;;;;;;;;15.10;99.90;;;;;;5117615;28;19928;-41
2023/10/01 05:33:38;;;;;;;;;;;15.10;99.90;;;;;;5116367;28;20027;-40
2023/10/01 05:36:05;;;;;;;;;;;15.10;99.90;;;;;;5116089;28;20287;-41
2023/10/01 05:38:34;;;;;;;;;;;15.00;99.90;;;;;;5117271;28;19924;-40
2023/10/01 05:41:03;;;;;;;;;;;15.00;99.90;;;;;;5117221;28;19974;-40
2023/10/01 05:43:37;;;;;;;;;;;15.00;99.90;;;;;;5117336;28;19928;-40
2023/10/01 05:46:08;;;;;;;;;;;15.00;99.90;;;;;;5117453;28;19931;-40
2023/10/01 05:48:40;;;;;;;;;;;15.00;99.90;;;;;;5117352;28;20018;-40
2023/10/01 05:51:14;;;;;;;;;;;15.00;99.90;;;;;;5116889;28;19924;-41
2023/10/01 05:53:43;;;;;;;;;;;15.00;99.90;;;;;;5117080;28;19971;-40
2023/10/01 05:56:17;;;;;;;;;;;15.00;99.90;;;;;;5117057;28;19931;-40
2023/10/01 05:58:43;;;;;;;;;;;15.00;99.90;;;;;;5117105;28;19924;-40
2023/10/01 06:01:15;;;;;;;;;;;14.90;99.90;;;;;;5116891;28;19986;-41
2023/10/01 06:03:41;;;;;;;;;;;14.90;99.90;;;;;;5116810;28;19924;-40
2023/10/01 06:06:13;;;;;;;;;;;14.90;99.90;;;;;;5116819;28;20068;-40
2023/10/01 06:08:46;;;;;;;;;;;14.90;99.90;;;;;;5116800;28;19923;-40
2023/10/01 06:11:16;;;;;;;;;;;14.90;99.90;;;;;;5116758;28;19924;-40
2023/10/01 06:13:51;;;;;;;;;;;14.90;99.90;;;;;;5116470;28;19928;-40
2023/10/01 06:16:24;;;;;;;;;;;14.90;99.90;;;;;;5116629;28;19931;-41
2023/10/01 06:18:52;;;;;;;;;;;14.90;99.90;;;;;;5116609;28;20026;-41
2023/10/01 06:21:25;;;;;;;;;;;14.90;99.90;;;;;;5116408;28;19923;-40
2023/10/01 06:23:51;;;;;;;;;;;14.90;99.90;;;;;;5116441;28;20046;-41
2023/10/01 06:26:19;;;;;;;;;;;14.90;99.90;;;;;;5115608;28;20340;-41
2023/10/01 06:28:49;;;;;;;;;;;14.90;99.90;;;;;;5116239;28;20401;-41
2023/10/01 06:31:17;;;;;;;;;;;14.90;99.90;;;;;;5116394;28;19932;-41
2023/10/01 06:33:44;;;;;;;;;;;14.90;99.90;;;;;;5116045;28;20385;-40
2023/10/01 06:36:19;;;;;;;;;;;14.90;99.90;;;;;;5116534;28;19924;-40
2023/10/01 06:38:47;;;;;;;;;;;14.90;99.90;;;;;;5116363;28;19977;-40
2023/10/01 06:41:20;;;;;;;;;;;14.90;99.90;;;;;;5116096;28;19968;-41
2023/10/01 06:43:49;;;;;;;;;;;14.90;99.90;;;;;;5116116;28;19970;-40
2023/10/01 06:46:16;;;;;;;;;;;14.90;99.90;;;;;;5115495;27;19928;-40
2023/10/01 06:48:42;;;;;;;;;;;14.90;99.90;;;;;;5115929;28;19924;-41
2023/10/01 06:51:08;;;;;;;;;;;14.90;99.90;;;;;;5115950;28;19923;-40
2023/10/01 06:53:47;;;;;;;;;;;14.90;99.90;;;;;;5115795;28;19946;-41
2023/10/01 06:56:15;;;;;;;;;;;15.00;99.90;;;;;;5115491;28;20371;-41
2023/10/01 06:58:41;;;;;;;;;;;15.00;99.90;;;;;;5114408;28;20367;-40
2023/10/01 07:01:34;;;;;;;;;;;15.00;99.90;;;;;;5115700;28;19998;-40
2023/10/01 07:03:52;;;;;;;;;;;15.00;99.90;;;;;;5115504;28;19989;-41
2023/10/01 07:06:18;;;;;;;;;;;15.00;99.90;;;;;;5115465;28;19927;-41
2023/10/01 07:08:43;;;;;;;;;;;15.00;99.90;;;;;;5115897;28;20018;-41
2023/10/01 07:11:12;;;;;;;;;;;15.00;99.90;;;;;;5115570;28;20302;-41
2023/10/01 07:13:38;;;;;;;;;;;15.00;99.90;;;;;;5115437;28;19946;-41
2023/10/01 07:16:04;;;;;;;;;;;15.00;99.90;;;;;;5115416;28;19976;-41
2023/10/01 07:18:30;;;;;;;;;;;15.10;99.90;;;;;;5115389;28;20008;-41
2023/10/01 07:21:00;;;;;;;;;;;15.10;99.90;;;;;;5115369;27;19935;-41
2023/10/01 07:23:26;;;;;;;;;;;15.10;99.90;;;;;;5115561;28;19946;-41
2023/10/01 07:26:00;;;;;;;;;;;15.10;99.90;;;;;;5115393;28;19973;-41
2023/10/01 07:28:25;;;;;;;;;;;15.20;99.90;;;;;;5114467;28;20367;-41
2023/10/01 07:30:56;;;;;;;;;;;15.20;99.90;;;;;;5115168;28;19930;-41
2023/10/01 07:33:28;;;;;;;;;;;15.20;99.90;;;;;;5114937;28;19924;-41
2023/10/01 07:36:01;;;;;;;;;;;15.20;99.90;;;;;;5115388;28;20264;-41
2023/10/01 07:38:31;;;;;;;;;;;15.20;99.90;;;;;;5115182;28;19927;-41
2023/10/01 07:40:59;;;;;;;;;;;15.30;99.90;;;;;;5115028;28;19927;-41
2023/10/01 07:43:25;;;;;;;;;;;15.30;99.90;;;;;;5115011;28;20260;-41
2023/10/01 07:46:02;;;;;;;;;;;15.30;99.90;;;;;;5113668;28;19924;-41
2023/10/01 07:48:28;;;;;;;;;;;15.30;99.90;;;;;;5114074;28;19931;-41
2023/10/01 07:51:03;;;;;;;;;;;15.40;99.90;;;;;;5115128;28;19924;-41
2023/10/01 07:53:33;;;;;;;;;;;15.40;99.90;;;;;;5114860;28;19979;-41
2023/10/01 07:56:02;;;;;;;;;;;15.40;99.90;;;;;;5114786;28;20026;-41
2023/10/01 07:58:46;;;;;;;;;;;15.40;99.90;;;;;;5113650;28;19924;-41
2023/10/01 08:03:55;;;;;;;;;;;15.40;99.90;;;;;;5114614;28;20443;-40
2023/10/01 08:06:29;;;;;;;;;;;15.40;99.90;;;;;;5114636;28;19924;-40
2023/10/01 08:08:57;;;;;;;;;;;15.40;99.90;;;;;;5114663;28;20022;-40
2023/10/01 08:14:08;;;;;;;;;;;15.40;99.90;;;;;;5113363;28;20294;-40
2023/10/01 08:16:47;;;;;;;;;;;15.40;99.90;;;;;;5114706;28;19923;-40
2023/10/01 08:19:14;;;;;;;;;;;15.50;99.90;;;;;;5114638;28;19945;-41
2023/10/01 08:21:48;;;;;;;;;;;15.50;99.90;;;;;;5114288;28;19924;-40
2023/10/01 08:24:20;;;;;;;;;;;15.50;99.90;;;;;;5114617;28;20027;-40
2023/10/01 08:26:57;;;;;;;;;;;15.50;99.90;;;;;;5114443;28;19976;-40
2023/10/01 08:32:11;;;;;;;;;;;15.60;99.90;;;;;;5114237;28;20382;-40
2023/10/01 08:35:23;;;;;;;;;;;15.60;99.90;;;;;;5114337;28;19924;-40
2023/10/01 08:37:31;;;;;;;;;;;15.60;99.90;;;;;;5108390;28;19931;-41
2023/10/01 08:39:59;;;;;;;;;;;15.60;99.90;;;;;;5114442;28;19927;-40
2023/10/01 08:42:33;;;;;;;;;;;15.70;99.90;;;;;;5114049;28;19934;-41
2023/10/01 08:45:03;;;;;;;;;;;15.70;99.90;;;;;;5114322;28;19924;-40
2023/10/01 08:47:37;;;;;;;;;;;15.70;99.90;;;;;;5114668;28;19992;-40
2023/10/01 08:50:48;;;;;;;;;;;15.70;99.90;;;;;;5130168;27;19924;-40
2023/10/01 08:52:58;;;;;;;;;;;15.80;99.90;;;;;;5102955;28;19923;-40
2023/10/01 08:55:24;;;;;;;;;;;15.80;99.90;;;;;;5113389;28;19924;-41
2023/10/01 08:57:53;;;;;;;;;;;15.90;99.90;;;;;;5112771;28;19924;-41
2023/10/01 09:00:20;;;;;;;;;;;15.80;99.90;;;;;;5114442;28;19923;-40
2023/10/01 09:02:50;;;;;;;;;;;15.90;99.90;;;;;;5114111;28;19924;-40
2023/10/01 09:05:23;;;;;;;;;;;15.90;99.90;;;;;;5113139;28;20371;-40
2023/10/01 09:07:50;;;;;;;;;;;15.90;99.90;;;;;;5114661;28;19924;-40
2023/10/01 09:10:18;;;;;;;;;;;15.90;99.90;;;;;;5116279;28;19935;-40
2023/10/01 09:12:46;;;;;;;;;;;15.90;99.90;;;;;;5117975;28;20324;-40
2023/10/01 09:15:27;;;;;;;;;;;16.00;99.90;;;;;;5117772;28;19924;-41
2023/10/01 09:17:56;;;;;;;;;;;16.00;99.90;;;;;;5117478;28;19923;-41
2023/10/01 09:21:06;;;;;;;;;;;16.00;99.90;;;;;;5118176;28;19981;-41
2023/10/01 09:23:56;;;;;;;;;;;16.10;99.90;;;;;;5088250;28;19924;-40
2023/10/01 09:26:42;;;;;;;;;;;16.20;99.90;;;;;;5116585;28;19930;-41
2023/10/01 09:29:24;;;;;;;;;;;16.20;99.90;;;;;;5117864;28;19924;-41
2023/10/01 09:31:56;;;;;;;;;;;16.30;99.90;;;;;;5117537;28;19924;-41
2023/10/01 09:34:35;;;;;;;;;;;16.40;99.90;;;;;;5117279;28;19924;-41
2023/10/01 09:37:06;;;;;;;;;;;16.50;99.90;;;;;;5117538;28;19924;-41
2023/10/01 09:39:38;;;;;;;;;;;16.60;99.90;;;;;;5117387;28;19969;-41
2023/10/01 09:42:22;;;;;;;;;;;16.70;99.90;;;;;;5117252;28;19984;-40
2023/10/01 09:44:49;;;;;;;;;;;16.80;99.90;;;;;;5117295;28;19931;-41
2023/10/01 09:47:15;;;;;;;;;;;16.90;99.90;;;;;;5117207;28;19927;-41
2023/10/01 09:49:47;;;;;;;;;;;16.90;99.90;;;;;;5117173;28;19931;-41
2023/10/01 09:52:26;;;;;;;;;;;17.00;99.90;;;;;;5117241;28;19931;-41
2023/10/01 09:55:02;;;;;;;;;;;17.10;99.90;;;;;;5116962;28;20026;-41
2023/10/01 09:57:29;;;;;;;;;;;17.20;99.90;;;;;;5116978;28;20014;-41
2023/10/01 10:00:14;;;;;;;;;;;17.30;99.90;;;;;;5117022;27;19924;-41
2023/10/01 10:02:51;;;;;;;;;;;17.30;99.90;;;;;;5117275;28;19923;-41
2023/10/01 10:05:26;;;;;;;;;;;17.40;99.90;;;;;;5116969;28;19928;-41
2023/10/01 10:07:56;;;;;;;;;;;17.50;99.90;;;;;;5116629;28;19923;-42
2023/10/01 10:10:25;;;;;;;;;;;17.70;99.90;;;;;;5115919;28;19924;-43
2023/10/01 10:12:56;;;;;;;;;;;17.70;99.90;;;;;;5116808;27;19923;-41
2023/10/01 10:15:46;;;;;;;;;;;17.80;99.90;;;;;;5116913;28;19930;-41
2023/10/01 10:18:15;;;;;;;;;;;17.90;99.90;;;;;;5116593;28;20022;-42
2023/10/01 10:20:57;;;;;;;;;;;18.00;99.90;;;;;;5116211;28;19924;-41
2023/10/01 10:23:29;;;;;;;;;;;18.10;99.90;;;;;;5116744;28;19947;-41
2023/10/01 10:26:13;;;;;;;;;;;18.10;99.90;;;;;;5116779;28;19977;-41
2023/10/01 10:28:52;;;;;;;;;;;18.20;99.90;;;;;;5116210;28;19977;-42
2023/10/01 10:31:30;;;;;;;;;;;18.30;99.90;;;;;;5115363;28;20286;-42
2023/10/01 10:34:36;;;;;;;;;;;18.40;99.90;;;;;;5116450;28;20290;-41
2023/10/01 10:37:06;;;;;;;;;;;18.50;99.90;;;;;;5116200;28;19924;-41
2023/10/01 10:40:12;;;;;;;;;;;18.60;99.90;;;;;;5116488;28;19923;-42
2023/10/01 10:43:02;;;;;;;;;;;18.70;99.90;;;;;;5115501;28;20015;-41
2023/10/01 10:45:42;;;;;;;;;;;18.80;99.90;;;;;;5108328;28;20363;-42
2023/10/01 10:48:08;;;;;;;;;;;18.90;99.90;;;;;;5116251;28;19923;-42
2023/10/01 10:50:48;;;;;;;;;;;19.00;99.90;;;;;;5116210;28;19977;-41
2023/10/01 10:53:18;;;;;;;;;;;19.10;99.90;;;;;;5115938;28;19931;-41
2023/10/01 10:55:54;;;;;;;;;;;19.30;99.90;;;;;;5114692;28;19924;-42
2023/10/01 10:58:20;;;;;;;;;;;19.40;99.90;;;;;;5116090;28;19924;-42
2023/10/01 11:00:49;;;;;;;;;;;19.40;99.90;;;;;;5115900;28;19924;-41
2023/10/01 11:03:16;;;;;;;;;;;19.40;99.90;;;;;;5115683;28;19927;-42
2023/10/01 11:05:51;;;;;;;;;;;19.40;99.90;;;;;;5115697;28;19930;-41
2023/10/01 11:08:25;;;;;;;;;;;19.40;99.90;;;;;;5115643;28;19984;-42
2023/10/01 11:10:54;;;;;;;;;;;19.40;99.90;;;;;;5115668;28;20329;-41
2023/10/01 11:13:38;;;;;;;;;;;19.40;99.90;;;;;;5115304;28;19975;-42
2023/10/01 11:16:16;;;;;;;;;;;19.40;99.90;;;;;;5115525;28;19981;-41
2023/10/01 11:18:44;;;;;;;;;;;19.30;99.90;;;;;;5115237;28;19977;-42
2023/10/01 11:21:13;;;;;;;;;;;19.20;99.90;;;;;;5115460;28;19927;-42
2023/10/01 11:23:39;;;;;;;;;;;19.20;99.90;;;;;;5115414;28;19931;-42
2023/10/01 11:26:07;;;;;;;;;;;19.10;99.90;;;;;;5115242;28;19924;-42
2023/10/01 11:28:41;;;;;;;;;;;19.10;99.90;;;;;;5115084;28;19931;-42
2023/10/01 11:31:25;;;;;;;;;;;19.10;99.90;;;;;;5115062;28;20354;-42
2023/10/01 11:34:03;;;;;;;;;;;19.10;99.90;;;;;;5115101;28;19986;-42
2023/10/01 11:36:35;;;;;;;;;;;19.10;99.90;;;;;;5115304;28;19978;-42
2023/10/01 11:39:03;;;;;;;;;;;19.10;99.90;;;;;;5115164;28;20406;-42
2023/10/01 11:41:38;;;;;;;;;;;19.20;99.90;;;;;;5113768;28;20328;-42
2023/10/01 11:44:05;;;;;;;;;;;19.20;99.90;;;;;;5114843;28;19930;-42
2023/10/01 11:46:35;;;;;;;;;;;19.30;99.90;;;;;;5114995;28;19930;-42
2023/10/01 11:49:06;;;;;;;;;;;19.30;99.90;;;;;;5115248;28;19986;-42
2023/10/01 11:51:41;;;;;;;;;;;19.40;99.90;;;;;;5115090;28;20290;-41
2023/10/01 11:54:10;;;;;;;;;;;19.40;99.90;;;;;;5114763;28;20355;-44
2023/10/01 11:56:37;;;;;;;;;;;19.40;99.90;;;;;;5113447;28;19927;-42
2023/10/01 11:59:08;;;;;;;;;;;19.40;99.90;;;;;;5114831;28;19924;-42
2023/10/01 12:01:47;;;;;;;;;;;19.40;99.90;;;;;;5114800;28;20276;-42
2023/10/01 12:04:24;;;;;;;;;;;19.40;99.90;;;;;;5115057;28;19931;-42
2023/10/01 12:06:54;;;;;;;;;;;19.40;99.90;;;;;;5114599;28;19981;-42
2023/10/01 12:09:20;;;;;;;;;;;19.40;99.90;;;;;;5115369;28;19923;-42
2023/10/01 12:12:04;;;;;;;;;;;19.40;99.90;;;;;;5114716;28;19931;-42
2023/10/01 12:14:51;;;;;;;;;;;19.30;99.90;;;;;;5114457;28;20366;-41
2023/10/01 12:17:19;;;;;;;;;;;19.40;99.90;;;;;;5113429;28;19932;-42
2023/10/01 12:19:45;;;;;;;;;;;19.40;99.90;;;;;;5114769;28;19946;-42
2023/10/01 12:22:10;;;;;;;;;;;19.40;99.90;;;;;;5114513;28;20355;-42
2023/10/01 12:24:44;;;;;;;;;;;19.50;99.90;;;;;;5114529;28;19988;-42
2023/10/01 12:27:11;;;;;;;;;;;19.50;99.90;;;;;;5113716;28;19923;-41
2023/10/01 12:29:42;;;;;;;;;;;19.50;99.90;;;;;;5114292;28;20076;-41
2023/10/01 12:32:12;;;;;;;;;;;19.60;99.90;;;;;;5114402;28;19923;-43
2023/10/01 12:34:39;;;;;;;;;;;19.60;99.90;;;;;;5113248;28;19931;-41
2023/10/01 12:37:31;;;;;;;;;;;19.70;99.90;;;;;;5114571;28;20282;-42
2023/10/01 12:39:50;;;;;;;;;;;19.70;99.90;;;;;;5114162;28;19931;-41
2023/10/01 12:42:16;;;;;;;;;;;19.80;99.90;;;;;;5114198;28;20016;-42
2023/10/01 12:44:43;;;;;;;;;;;19.90;99.90;;;;;;5115653;28;20039;-42
2023/10/01 12:47:14;;;;;;;;;;;19.90;99.90;;;;;;5118564;28;20340;-42
2023/10/01 12:49:42;;;;;;;;;;;19.90;99.90;;;;;;5118428;28;19924;-42
2023/10/01 12:52:09;;;;;;;;;;;19.90;99.90;;;;;;5118425;28;20026;-42
2023/10/01 12:54:38;;;;;;;;;;;20.10;99.90;;;;;;5117980;28;20290;-41
2023/10/01 12:57:13;;;;;;;;;;;20.20;99.90;;;;;;5118196;28;19931;-42
2023/10/01 12:59:39;;;;;;;;;;;20.30;99.90;;;;;;5118273;28;19923;-42
2023/10/01 13:02:21;;;;;;;;;;;20.40;99.90;;;;;;5134546;27;20018;-42
2023/10/01 13:04:51;;;;;;;;;;;20.40;99.90;;;;;;5117948;28;19950;-42
2023/10/01 13:07:34;;;;;;;;;;;20.40;99.90;;;;;;5117878;28;19961;-42
2023/10/01 13:10:03;;;;;;;;;;;20.40;99.90;;;;;;5118205;28;19976;-43
2023/10/01 13:12:31;;;;;;;;;;;20.40;99.90;;;;;;5118158;28;20339;-42
2023/10/01 13:15:15;;;;;;;;;;;20.50;99.90;;;;;;5117820;28;19935;-42
2023/10/01 13:17:44;;;;;;;;;;;20.50;99.90;;;;;;5116939;28;19924;-42
2023/10/01 13:20:19;;;;;;;;;;;20.50;99.90;;;;;;5117827;28;20434;-42
2023/10/01 13:22:48;;;;;;;;;;;20.50;99.90;;;;;;5117855;28;20367;-42
2023/10/01 13:25:20;;;;;;;;;;;20.60;99.90;;;;;;5117580;28;19924;-42
2023/10/01 13:27:46;;;;;;;;;;;20.60;99.90;;;;;;5117522;28;19976;-42
2023/10/01 13:30:19;;;;;;;;;;;20.60;99.90;;;;;;5117522;28;19967;-42
2023/10/01 13:33:10;;;;;;;;;;;20.60;99.90;;;;;;5117634;28;19923;-41
2023/10/01 13:35:50;;;;;;;;;;;20.60;99.90;;;;;;5117294;28;19931;-41
2023/10/01 13:38:52;;;;;;;;;;;20.50;99.90;;;;;;5117332;28;19945;-42
2023/10/01 14:08:44;;;;;;;;;;;20.50;99.90;;;;;;5116820;28;19989;-43
2023/10/01 14:11:11;;;;;;;;;;;20.40;99.90;;;;;;5116805;28;19923;-42
2023/10/01 14:13:40;;;;;;;;;;;20.40;99.90;;;;;;5116601;28;19928;-41
2023/10/01 14:16:22;;;;;;;;;;;20.40;99.90;;;;;;5116663;28;19931;-42
2023/10/01 14:18:54;;;;;;;;;;;20.40;99.90;;;;;;5116793;28;19924;-41
2023/10/01 14:21:22;;;;;;;;;;;20.40;99.90;;;;;;5117013;28;19924;-42
2023/10/01 14:23:52;;;;;;;;;;;20.40;99.90;;;;;;5116470;28;19931;-41
2023/10/01 14:26:21;;;;;;;;;;;20.30;99.90;;;;;;5116483;28;19978;-41
2023/10/01 14:28:49;;;;;;;;;;;20.40;99.90;;;;;;5132239;27;19934;-42
2023/10/01 14:31:41;;;;;;;;;;;20.30;99.90;;;;;;5116235;28;20390;-42
2023/10/01 14:34:08;;;;;;;;;;;20.30;99.90;;;;;;5116239;28;20320;-42
2023/10/01 14:36:38;;;;;;;;;;;20.30;99.90;;;;;;5116424;28;19924;-42
2023/10/01 14:39:09;;;;;;;;;;;20.30;99.90;;;;;;5116314;28;19924;-42
2023/10/01 14:41:41;;;;;;;;;;;20.30;99.90;;;;;;5116512;28;19982;-42
2023/10/01 14:44:07;;;;;;;;;;;20.30;99.90;;;;;;5116214;28;20302;-42
2023/10/01 14:46:33;;;;;;;;;;;20.20;99.90;;;;;;5116181;28;19931;-42
2023/10/01 14:49:05;;;;;;;;;;;20.20;99.90;;;;;;5116317;28;19923;-41
2023/10/01 14:51:31;;;;;;;;;;;20.20;99.90;;;;;;5115917;28;19968;-42
2023/10/01 14:53:57;;;;;;;;;;;20.20;99.90;;;;;;5115771;28;19934;-42
2023/10/01 14:56:30;;;;;;;;;;;20.20;99.90;;;;;;5116418;28;19924;-42
2023/10/01 14:58:56;;;;;;;;;;;20.20;99.90;;;;;;5114585;28;20282;-42
2023/10/01 15:01:22;;;;;;;;;;;20.20;99.90;;;;;;5115938;28;20287;-42
2023/10/01 15:03:54;;;;;;;;;;;20.20;99.90;;;;;;5115528;28;19930;-42
2023/10/01 15:06:20;;;;;;;;;;;20.20;99.90;;;;;;5115595;28;20310;-42
2023/10/01 15:08:46;;;;;;;;;;;20.20;99.90;;;;;;5115454;28;20014;-42
2023/10/01 15:11:11;;;;;;;;;;;20.20;99.90;;;;;;5116068;27;19976;-42
2023/10/01 15:13:47;;;;;;;;;;;20.20;99.90;;;;;;5115474;28;20328;-42
2023/10/01 15:16:14;;;;;;;;;;;20.20;99.90;;;;;;5115627;28;19931;-41
2023/10/01 15:18:40;;;;;;;;;;;20.20;99.90;;;;;;5115422;28;20302;-42
2023/10/01 15:21:23;;;;;;;;;;;20.20;99.90;;;;;;5115502;28;19923;-42